VVTSVDSR

Guest
Details From VVTS - TAN SON NHAT INTL
To VDSR - Siem Reap
Flight Number -
Tags generated
Created
Modified
Stats Distance 243 nm / 450 km
Max Altitude 26,300 ft / 8,016 m
Waypoints 7
Social Downloads 5
Likes 0
Share VATSIM

Download

Looking for another format? Having issues loading an existing format? Contact us
Advertisement - Login to hide

Notes

Basic altitude profile: - Ascent Rate: 2500ft/min - Ascent Speed: 250kts - Cruise Altitude: 35000ft - Cruise Speed: 420kts - Descent Rate: 1500ft/min - Descent Speed: 250kts Options: - Use NATs: yes - Use PACOTS: yes - Use low airways: yes - Use high airways: yes

Route

VVTS TSN R468 PNH W1 SRE VDSR

ID Type Via Altitude Latitude Longitude Leg Dist Tot Dist Heading (true) Name
O VVTS APT - 0 ft / 0 m 10.81875˚ 106.65173˚ - 0 nm - TAN SON NHAT INTL
TSN VOR - 100 ft / 30 m 10.81643˚ 106.64558˚ 0 nm 0 nm 249° / 249° TANSONNHAT VOR-DME
SAPEN FIX R468 (AWY-LO) 10,800 ft / 3,292 m 11.02000˚ 106.18333˚ 29 nm 30 nm 294° / 294° -
POPET FIX R468 (AWY-LO) 16,000 ft / 4,877 m 11.10000˚ 105.95000˚ 14 nm 44 nm 289° / 289° -
PNH VOR R468 (AWY-LO) 26,300 ft / 8,016 m 11.54667˚ 104.84167˚ 70 nm 115 nm 292° / 292° PHNOM PENH VOR-DME
SRE VOR W1 (AWY-LO) 6,000 ft / 1,829 m 13.41500˚ 103.82167˚ 127 nm 242 nm 332° / 332° SIEM REAP VOR-DME
O VDSR APT - 0 ft / 0 m 13.41067˚ 103.81283˚ 0 nm 243 nm 243° / 243° Siem Reap

Altitude Profile

Advertisement - Login to hide

Weather


0- 5 10 15 20 25 30 35+ Temperature / ° C

Clouds and Precipitation
Forecast for 2017-12-17 12:00 UTC. Updated an hour ago

Ground ~20,000 ft ~40,000 ft Winds

VVTS

Details ICAO VVTS (SGN)
Name TAN SON NHAT INTL
Region Vietnam
Timezone Asia/Ho_Chi_Minh (UTC+7.0)
Stats Elevation 33 ft / 10 m (AMSL)
Location 10.818750° 106.651735°
Runways 2
Magnetic Variation 0.488° W

METAR

VVTS 171200Z 04007KT 9999 FEW017 27/17 Q1013 NOSIG

Decode

TAF

TAF VVTS 171100Z 1712/1818 04009KT 9999 SCT017

Decode

Departure Runways

ID Width Length Bearing (true) Bearing (mag) Surface Threshold Offset Overrun Length
07L 148 ft / 45 m 9,998 ft / 3,047 m 69.00° 69.49° Asphalt 0 ft / 0 m 1,040 ft / 317 m
07R 148 ft / 45 m 12,617 ft / 3,846 m 68.90° 69.39° Concrete 2,543 ft / 775 m 863 ft / 263 m
25L 148 ft / 45 m 12,617 ft / 3,846 m 248.90° 249.39° Concrete 0 ft / 0 m 1,027 ft / 313 m
25R 148 ft / 45 m 9,998 ft / 3,047 m 249.00° 249.49° Asphalt 0 ft / 0 m 1,053 ft / 321 m

VDSR

Details ICAO VDSR (REP)
Name Siem Reap
Region Cambodia
Timezone Asia/Phnom_Penh (UTC+7.0)
Stats Elevation 60 ft / 18 m (AMSL)
Location 13.410667° 103.812832°
Runways 1
Magnetic Variation 0.619° W

METAR

VDSR 171130Z 01006KT 8000 NSC 25/16 Q1014

Decode

TAF

Not found

Destination Runways

ID Width Length Bearing (true) Bearing (mag) Surface Threshold Offset Overrun Length
05 148 ft / 45 m 8,384 ft / 2,555 m 47.81° 48.43° Concrete 450 ft / 137 m 0 ft / 0 m
23 148 ft / 45 m 8,384 ft / 2,555 m 227.82° 228.44° Concrete 450 ft / 137 m 0 ft / 0 m